Time;durP1;ratioP1;P1;durP2;ratioP2;P2;SDS_P1;SDS_P2;PMS_P1;PMS_P2;Temp;Humidity;BMP_temperature;BMP_pressure;BME280_temperature;BME280_humidity;BME280_pressure;Samples;Min_cycle;Max_cycle;Signal;HPM_P1;HPM_P2
2022/11/22 00:01:03;;;;;;;26.83;14.10;;;;;;;2.85;76.19;91018.91;2071295;69;20155;-78
2022/11/22 00:03:28;;;;;;;24.00;13.35;;;;;;;2.99;75.33;91020.50;2071133;69;20128;-76
2022/11/22 00:05:55;;;;;;;25.83;13.63;;;;;;;3.00;75.50;91015.66;2071298;69;20158;-78
2022/11/22 00:08:21;;;;;;;25.75;14.00;;;;;;;2.64;76.68;91014.88;2074478;69;20140;-76
2022/11/22 00:10:49;;;;;;;21.33;13.18;;;;;;;2.80;77.05;91006.81;2074581;69;20168;-76
2022/11/22 00:13:17;;;;;;;25.95;13.65;;;;;;;3.05;75.61;91015.31;2074603;69;20266;-76
2022/11/22 00:15:43;;;;;;;22.27;12.77;;;;;;;3.01;74.69;91015.06;2073740;69;20231;-76
2022/11/22 00:18:08;;;;;;;23.13;13.63;;;;;;;3.02;75.51;91008.19;2072749;69;20140;-77
2022/11/22 00:20:34;;;;;;;23.30;13.32;;;;;;;3.14;75.05;91013.75;2072939;69;20140;-77
2022/11/22 00:23:00;;;;;;;21.88;12.63;;;;;;;3.16;74.55;91018.69;2073402;69;20175;-77
2022/11/22 00:25:26;;;;;;;20.77;11.38;;;;;;;3.19;74.51;91021.00;2072926;69;20144;-77
2022/11/22 00:27:52;;;;;;;16.90;9.43;;;;;;;3.21;74.77;91012.06;2072751;69;20179;-76
2022/11/22 00:30:19;;;;;;;18.90;10.70;;;;;;;3.27;74.88;91015.94;2072819;69;20224;-77
2022/11/22 00:32:44;;;;;;;21.73;11.95;;;;;;;2.99;75.71;91011.44;2073763;69;20144;-77
2022/11/22 00:35:20;;;;;;;19.85;11.20;;;;;;;3.04;76.10;91016.63;2074503;69;20148;-77
2022/11/22 00:37:46;;;;;;;20.13;11.05;;;;;;;3.19;75.16;91009.16;2074746;69;20152;-77
2022/11/22 00:40:11;;;;;;;17.90;10.98;;;;;;;3.14;75.63;91001.91;2073282;69;20152;-77
2022/11/22 00:42:38;;;;;;;17.23;10.98;;;;;;;3.10;75.27;90996.09;2072249;69;20148;-77
2022/11/22 00:45:04;;;;;;;17.98;10.27;;;;;;;2.99;75.44;90997.53;2071370;69;20137;-77
2022/11/22 00:47:31;;;;;;;20.77;10.27;;;;;;;3.13;75.13;90997.66;2072245;69;20186;-78
2022/11/22 00:49:57;;;;;;;20.63;10.55;;;;;;;3.17;74.87;90986.78;2071503;69;20140;-77
2022/11/22 00:52:23;;;;;;;18.00;10.40;;;;;;;3.19;75.10;90982.06;2071561;69;20158;-76
2022/11/22 00:54:49;;;;;;;19.65;10.88;;;;;;;3.26;74.29;90978.31;2071718;69;20132;-77
2022/11/22 00:57:14;;;;;;;17.98;10.43;;;;;;;3.22;74.14;90969.75;2071572;69;20159;-76
2022/11/22 00:59:40;;;;;;;18.23;10.85;;;;;;;3.29;74.18;90960.41;2071138;69;20152;-76
2022/11/22 01:02:06;;;;;;;19.08;11.10;;;;;;;3.20;74.77;90947.34;2072213;69;20143;-76
2022/11/22 01:04:31;;;;;;;17.23;10.40;;;;;;;3.24;74.49;90941.31;2072729;69;20204;-79
2022/11/22 01:06:57;;;;;;;17.25;9.82;;;;;;;3.31;74.10;90938.28;2073192;69;20185;-76
2022/11/22 01:09:23;;;;;;;16.23;9.57;;;;;;;3.29;74.22;90935.38;2071462;69;20143;-76
2022/11/22 01:11:49;;;;;;;16.05;9.82;;;;;;;3.31;74.30;90938.28;2072875;69;20196;-76
2022/11/22 01:14:18;;;;;;;18.38;9.57;;;;;;;3.17;74.35;90934.69;2074621;69;20646;-77
2022/11/22 01:16:43;;;;;;;15.00;9.20;;;;;;;3.32;73.96;90936.22;2071286;69;20179;-76
2022/11/22 01:19:09;;;;;;;16.65;9.63;;;;;;;3.28;74.17;90936.00;2074317;69;20220;-76
2022/11/22 01:21:35;;;;;;;19.33;10.18;;;;;;;3.36;74.35;90938.53;2070759;69;20156;-75
2022/11/22 01:24:01;;;;;;;16.65;9.80;;;;;;;3.14;74.78;90933.13;2071257;69;20232;-77
2022/11/22 01:26:28;;;;;;;24.30;13.32;;;;;;;2.97;76.47;90942.53;2068024;69;20152;-76
2022/11/22 01:28:55;;;;;;;22.65;13.65;;;;;;;3.02;75.79;90943.50;2071238;69;20148;-76
2022/11/22 01:31:20;;;;;;;20.73;12.50;;;;;;;3.19;75.03;90943.13;2071187;69;20572;-76
2022/11/22 01:33:46;;;;;;;18.92;10.45;;;;;;;3.13;74.63;90944.84;2071414;69;20263;-76
2022/11/22 01:36:12;;;;;;;17.40;10.85;;;;;;;3.19;74.70;90945.91;2071394;69;20264;-76
2022/11/22 01:38:38;;;;;;;17.55;10.32;;;;;;;3.19;74.32;90940.34;2071339;69;20493;-75
2022/11/22 01:41:03;;;;;;;16.98;10.38;;;;;;;3.09;74.70;90934.19;2071227;69;20145;-75
2022/11/22 01:43:29;;;;;;;19.08;11.07;;;;;;;3.21;74.56;90940.50;2071500;69;20422;-75
2022/11/22 01:45:56;;;;;;;19.02;10.95;;;;;;;3.18;74.38;90936.13;2071375;69;20128;-74
2022/11/22 01:48:29;;;;;;;15.43;9.93;;;;;;;3.26;74.25;90933.13;2071096;69;20807;-76
2022/11/22 01:51:01;;;;;;;18.23;9.93;;;;;;;3.22;73.82;90936.38;2071146;69;20148;-75
2022/11/22 01:53:36;;;;;;;21.67;10.20;;;;;;;2.86;76.12;90926.59;2071349;69;20140;-77
2022/11/22 01:56:05;;;;;;;16.88;9.98;;;;;;;3.17;74.83;90945.81;2071280;69;20167;-74
2022/11/22 01:58:33;;;;;;;17.08;10.15;;;;;;;3.13;75.39;90942.06;2071315;69;20664;-75
2022/11/22 02:01:00;;;;;;;17.27;10.60;;;;;;;3.18;75.04;90946.53;2071321;69;20147;-75
2022/11/22 02:03:28;;;;;;;17.40;9.57;;;;;;;3.12;75.16;90940.63;2071063;69;20143;-75
2022/11/22 02:05:55;;;;;;;18.27;10.13;;;;;;;3.02;75.83;90947.03;2071467;69;20160;-75
2022/11/22 02:08:33;;;;;;;16.83;10.13;;;;;;;3.15;75.14;90942.16;2071316;69;20155;-76
2022/11/22 02:11:01;;;;;;;16.65;9.73;;;;;;;3.22;75.02;90933.59;2071517;69;20156;-75
2022/11/22 02:13:30;;;;;;;16.92;9.85;;;;;;;2.80;76.16;90938.06;2071215;69;20180;-76
2022/11/22 02:15:57;;;;;;;17.85;10.18;;;;;;;2.99;76.25;90939.16;2067273;69;20220;-76
2022/11/22 02:18:22;;;;;;;19.70;9.93;;;;;;;3.15;75.75;90926.22;2071257;69;20163;-76
2022/11/22 02:20:51;;;;;;;19.67;9.50;;;;;;;3.15;74.84;90923.44;2071195;69;20668;-76
2022/11/22 02:23:29;;;;;;;19.02;9.15;;;;;;;3.01;76.45;90928.88;2067736;69;20160;-77
2022/11/22 02:25:58;;;;;;;19.60;10.48;;;;;;;3.12;76.26;90929.50;2071286;69;20193;-77
2022/11/22 02:28:27;;;;;;;18.65;10.20;;;;;;;3.24;75.69;90932.97;2067957;69;20164;-75
2022/11/22 02:30:53;;;;;;;19.70;10.00;;;;;;;3.30;75.43;90925.72;2071327;69;20159;-76
2022/11/22 02:33:19;;;;;;;16.55;9.20;;;;;;;3.17;76.12;90931.91;2070601;69;20188;-75
2022/11/22 02:35:45;;;;;;;17.20;9.10;;;;;;;3.24;75.44;90930.19;2071295;69;20243;-77
2022/11/22 02:38:23;;;;;;;18.50;9.45;;;;;;;3.39;75.03;90932.50;2071180;69;20243;-77
2022/11/22 02:40:53;;;;;;;15.48;9.07;;;;;;;3.33;75.25;90940.47;2071327;69;20191;-76
2022/11/22 02:43:30;;;;;;;14.20;8.98;;;;;;;3.36;75.18;90939.25;2070961;69;20151;-79
2022/11/22 02:46:02;;;;;;;16.17;9.43;;;;;;;3.29;75.56;90943.00;2071405;69;20244;-76
2022/11/22 02:48:28;;;;;;;15.38;8.73;;;;;;;3.35;74.88;90939.88;2071267;69;20155;-76
2022/11/22 02:50:53;;;;;;;15.40;9.55;;;;;;;3.37;75.15;90928.84;2071351;69;20592;-76
2022/11/22 02:53:19;;;;;;;19.55;10.30;;;;;;;3.19;76.28;90926.44;2071311;69;20134;-75
2022/11/22 02:55:45;;;;;;;16.60;8.93;;;;;;;3.23;75.76;90918.34;2071099;69;20155;-76
2022/11/22 02:58:12;;;;;;;16.48;8.55;;;;;;;3.33;75.38;90923.06;2070811;69;20171;-76
2022/11/22 03:00:38;;;;;;;14.68;9.45;;;;;;;3.32;75.33;90911.22;2071515;69;20473;-77
2022/11/22 03:03:04;;;;;;;14.23;9.45;;;;;;;3.33;75.20;90920.28;2071119;69;20210;-75
2022/11/22 03:05:29;;;;;;;15.60;9.10;;;;;;;3.36;75.02;90910.72;2071145;69;20288;-75
2022/11/22 03:07:55;;;;;;;16.10;8.88;;;;;;;3.31;75.81;90907.69;2070863;69;20596;-74
2022/11/22 03:10:21;;;;;;;14.88;9.20;;;;;;;3.12;75.72;90905.19;2071374;69;20159;-76
2022/11/22 03:12:48;;;;;;;14.55;8.60;;;;;;;3.25;75.54;90893.47;2071265;69;20144;-77
2022/11/22 03:15:15;;;;;;;16.73;8.50;;;;;;;3.37;74.88;90889.91;2071023;69;20231;-77
2022/11/22 03:17:40;;;;;;;15.77;8.10;;;;;;;3.42;74.26;90886.03;2071310;69;20190;-77
2022/11/22 03:20:07;;;;;;;13.73;8.65;;;;;;;3.39;74.80;90890.75;2071244;69;20148;-78
2022/11/22 03:22:33;;;;;;;15.32;8.80;;;;;;;3.36;75.17;90877.34;2070017;69;20163;-75
2022/11/22 03:24:59;;;;;;;17.05;8.30;;;;;;;3.29;75.62;90890.88;2070396;69;20196;-78
2022/11/22 03:27:24;;;;;;;14.95;8.18;;;;;;;3.29;75.73;90888.09;2063889;69;20461;-78
2022/11/22 03:29:50;;;;;;;14.73;8.98;;;;;;;2.64;77.77;90889.88;2064547;69;20251;-77
2022/11/22 03:32:16;;;;;;;17.25;10.35;;;;;;;2.86;77.93;90900.88;2064579;69;20159;-77
2022/11/22 03:34:41;;;;;;;29.42;17.05;;;;;;;3.23;76.05;90901.66;2064610;69;20677;-76
2022/11/22 03:37:07;;;;;;;24.73;14.82;;;;;;;3.31;75.48;90891.00;2063961;69;20129;-76
2022/11/22 03:39:33;;;;;;;18.92;11.13;;;;;;;3.35;76.02;90887.03;2063994;69;20143;-76
2022/11/22 03:41:59;;;;;;;17.27;10.45;;;;;;;3.33;76.00;90889.69;2064826;69;20253;-77
2022/11/22 03:44:25;;;;;;;18.75;9.85;;;;;;;3.37;75.88;90892.69;2064577;69;20133;-77
2022/11/22 03:46:50;;;;;;;14.50;8.40;;;;;;;3.35;75.54;90889.81;2064246;69;20163;-78
2022/11/22 03:49:16;;;;;;;11.90;7.82;;;;;;;3.40;75.72;90874.81;2064510;69;20157;-77
2022/11/22 03:51:42;;;;;;;15.70;8.20;;;;;;;3.41;75.42;90881.81;2063917;69;20152;-77
2022/11/22 03:54:08;;;;;;;20.02;11.68;;;;;;;3.37;75.59;90876.72;2064843;69;20669;-76
2022/11/22 03:56:34;;;;;;;24.63;13.88;;;;;;;3.24;76.09;90878.09;2064408;69;20224;-78
2022/11/22 03:58:59;;;;;;;22.08;13.10;;;;;;;3.17;76.63;90870.72;2064862;69;20161;-77
2022/11/22 04:01:25;;;;;;;22.23;13.27;;;;;;;3.27;76.66;90878.94;2064700;69;20160;-77
2022/11/22 04:03:51;;;;;;;21.08;12.07;;;;;;;3.33;76.24;90873.72;2064617;69;20218;-77
2022/11/22 04:06:17;;;;;;;19.80;10.90;;;;;;;3.26;76.53;90869.16;2061497;69;20232;-76
2022/11/22 04:08:43;;;;;;;17.13;9.98;;;;;;;3.44;76.23;90869.47;2064490;69;20140;-74
2022/11/22 04:11:09;;;;;;;35.13;20.60;;;;;;;3.48;75.77;90872.47;2064829;69;20152;-78
2022/11/22 04:16:19;;;;;;;33.25;19.80;;;;;;;3.58;75.27;90870.28;2065040;69;20569;-76
2022/11/22 04:18:44;;;;;;;30.58;17.42;;;;;;;3.64;75.01;90864.31;2064891;69;20178;-76
2022/11/22 04:26:39;;;;;;;19.55;11.57;;;;;;;3.67;75.36;90865.88;2071658;69;20231;-77
2022/11/22 04:29:05;;;;;;;16.88;8.45;;;;;;;3.56;75.61;90875.69;2068438;69;20251;-77
2022/11/22 04:34:16;;;;;;;13.38;7.10;;;;;;;3.69;75.04;90883.41;2071678;69;20560;-75
2022/11/22 04:36:43;;;;;;;12.95;7.57;;;;;;;3.73;74.86;90880.84;2071713;69;20148;-76
2022/11/22 04:39:09;;;;;;;13.63;7.60;;;;;;;3.74;74.72;90890.63;2071849;69;20159;-76
2022/11/22 04:41:35;;;;;;;13.40;6.95;;;;;;;3.79;74.24;90886.75;2071379;69;20179;-77
2022/11/22 04:46:45;;;;;;;13.32;7.57;;;;;;;3.83;74.39;90900.91;2071805;69;20235;-76
2022/11/22 04:49:11;;;;;;;14.43;8.52;;;;;;;3.71;74.71;90902.25;2071631;69;20144;-77
2022/11/22 04:54:21;;;;;;;14.15;7.35;;;;;;;3.82;74.39;90913.38;2071663;69;20137;-76
2022/11/22 04:56:46;;;;;;;14.20;8.20;;;;;;;3.78;74.65;90915.91;2071597;69;20144;-76
2022/11/22 04:59:12;;;;;;;13.38;8.15;;;;;;;3.80;75.03;90904.91;2071648;69;20168;-77
2022/11/22 05:01:38;;;;;;;12.50;7.78;;;;;;;3.73;74.90;90905.19;2071584;69;20155;-77
2022/11/22 05:04:03;;;;;;;13.50;7.38;;;;;;;3.65;75.99;90907.50;2071586;69;20151;-77
2022/11/22 05:06:29;;;;;;;129.93;47.90;;;;;;;3.59;76.01;90910.66;2068103;69;20148;-76
2022/11/22 05:08:54;;;;;;;22.02;11.25;;;;;;;3.67;76.10;90905.56;2071366;69;20623;-77
2022/11/22 05:11:20;;;;;;;18.00;10.27;;;;;;;3.73;75.44;90908.69;2071598;69;20227;-76
2022/11/22 05:13:46;;;;;;;25.52;12.63;;;;;;;3.80;75.41;90906.94;2071599;69;20180;-77
2022/11/22 05:16:13;;;;;;;24.55;10.50;;;;;;;3.78;75.12;90904.06;2071434;69;20574;-77
2022/11/22 05:18:40;;;;;;;22.90;12.13;;;;;;;3.69;75.25;90888.97;2071624;69;20137;-76
2022/11/22 05:21:14;;;;;;;19.52;10.23;;;;;;;3.84;75.27;90904.41;2071568;69;20128;-77
2022/11/22 05:23:55;;;;;;;30.58;14.32;;;;;;;3.88;75.43;90904.63;2071600;69;20157;-76
2022/11/22 05:26:28;;;;;;;44.95;22.15;;;;;;;3.85;74.81;90902.34;2071573;69;20662;-76
2022/11/22 05:28:55;;;;;;;41.40;18.95;;;;;;;3.75;75.47;90906.00;2068148;69;20176;-77
2022/11/22 05:31:23;;;;;;;32.38;15.38;;;;;;;3.65;76.02;90897.09;2071430;69;20143;-75
2022/11/22 05:33:54;;;;;;;33.33;15.07;;;;;;;3.84;75.66;90901.63;2071475;69;20182;-76
2022/11/22 05:36:20;;;;;;;28.10;15.45;;;;;;;3.86;75.93;90903.81;2071465;69;20148;-76
2022/11/22 05:38:46;;;;;;;26.95;15.88;;;;;;;3.79;75.47;90911.78;2071545;69;20231;-75
2022/11/22 05:41:14;;;;;;;25.02;14.07;;;;;;;3.55;77.09;90922.28;2068210;69;20187;-75
2022/11/22 05:43:41;;;;;;;35.08;19.52;;;;;;;3.70;76.89;90923.09;2071467;69;20171;-75
2022/11/22 05:46:13;;;;;;;36.72;20.55;;;;;;;3.80;76.16;90929.97;2068163;69;20587;-76
2022/11/22 05:48:40;;;;;;;;;;;;;;;3.67;77.04;90930.59;2071837;69;20164;-77
2022/11/22 05:51:07;;;;;;;26.67;17.08;;;;;;;3.90;75.89;90937.44;2068213;69;20113;-76
2022/11/22 05:53:35;;;;;;;30.02;17.25;;;;;;;3.81;76.07;90941.81;2071450;69;20236;-76
2022/11/22 05:56:06;;;;;;;28.17;17.70;;;;;;;3.79;76.33;90947.25;2071459;69;20160;-75
2022/11/22 05:58:32;;;;;;;31.50;17.73;;;;;;;3.95;75.67;90944.69;2071386;69;20233;-74
2022/11/22 06:01:06;;;;;;;31.30;18.13;;;;;;;3.99;75.66;90953.97;2068189;69;20152;-76
2022/11/22 06:03:32;;;;;;;29.75;17.90;;;;;;;3.94;76.22;90957.88;2071421;69;20227;-76
2022/11/22 06:05:58;;;;;;;29.38;17.85;;;;;;;4.03;75.99;90965.34;2068092;69;20534;-75
2022/11/22 06:08:23;;;;;;;30.88;17.95;;;;;;;4.00;75.76;90963.06;2071490;69;20149;-77
2022/11/22 06:10:49;;;;;;;26.27;16.92;;;;;;;4.00;76.05;90960.28;2071387;69;20679;-77
2022/11/22 06:13:14;;;;;;;26.30;16.75;;;;;;;3.97;76.36;90961.50;2073410;69;20152;-76
2022/11/22 06:15:40;;;;;;;24.38;15.57;;;;;;;3.90;76.98;90963.22;2074747;69;20147;-76
2022/11/22 06:18:05;;;;;;;24.90;13.00;;;;;;;3.70;77.29;90959.97;2074456;69;20205;-77
2022/11/22 06:20:31;;;;;;;19.42;12.68;;;;;;;3.88;76.88;90968.66;2074838;69;20209;-77
2022/11/22 06:22:58;;;;;;;20.90;11.30;;;;;;;3.72;77.70;90976.09;2074659;69;20593;-77
2022/11/22 06:25:24;;;;;;;19.17;11.05;;;;;;;3.64;77.86;90979.13;2074684;69;20147;-78
2022/11/22 06:27:50;;;;;;;20.55;10.80;;;;;;;3.78;77.74;90982.00;2071377;69;20154;-77
2022/11/22 06:30:15;;;;;;;17.65;9.75;;;;;;;3.74;78.06;90990.09;2068561;69;20583;-77
2022/11/22 06:32:41;;;;;;;15.75;9.45;;;;;;;3.89;77.53;90988.84;2074696;69;20301;-77
2022/11/22 06:35:07;;;;;;;19.40;9.50;;;;;;;3.96;77.20;90999.03;2074826;69;20504;-78
2022/11/22 06:37:34;;;;;;;18.98;10.27;;;;;;;3.96;77.50;91002.53;2074854;69;20238;-77
2022/11/22 06:39:59;;;;;;;15.93;9.15;;;;;;;3.96;76.70;91001.81;2074861;69;20158;-77
2022/11/22 06:42:25;;;;;;;15.20;8.77;;;;;;;3.87;77.08;91006.19;2071492;69;20179;-77
2022/11/22 06:44:51;;;;;;;26.15;11.85;;;;;;;3.73;78.31;91020.00;2074844;69;20174;-77
2022/11/22 06:47:16;;;;;;;55.67;23.70;;;;;;;3.77;78.58;91011.88;2074690;69;20155;-78
2022/11/22 06:49:44;;;;;;;147.40;57.40;;;;;;;3.89;77.39;91022.25;2074829;69;20556;-77
2022/11/22 06:52:09;;;;;;;55.17;25.95;;;;;;;3.96;76.98;91024.06;2074837;69;20298;-78
2022/11/22 06:54:35;;;;;;;44.95;20.75;;;;;;;3.95;77.20;91020.56;2071424;69;20231;-78
2022/11/22 06:57:01;;;;;;;22.80;11.57;;;;;;;3.94;77.25;91029.50;2074977;69;20461;-78
2022/11/22 06:59:26;;;;;;;19.13;11.13;;;;;;;3.88;77.43;91023.59;2071421;69;20233;-78
2022/11/22 07:01:52;;;;;;;19.38;10.82;;;;;;;3.95;76.31;91037.28;2074515;69;20266;-78
2022/11/22 07:04:18;;;;;;;14.30;8.35;;;;;;;3.88;76.58;91038.25;2074231;69;20155;-78
2022/11/22 07:06:44;;;;;;;14.85;7.45;;;;;;;3.63;77.38;91040.94;2074790;69;20243;-77
2022/11/22 07:09:10;;;;;;;15.27;8.40;;;;;;;3.70;76.98;91049.03;2074730;69;20183;-77
2022/11/22 07:11:38;;;;;;;15.57;8.27;;;;;;;3.73;76.18;91047.84;2074730;69;20131;-75
2022/11/22 07:14:04;;;;;;;12.73;8.15;;;;;;;3.60;76.01;91048.44;2068466;69;20235;-77
2022/11/22 07:16:29;;;;;;;15.30;8.43;;;;;;;3.69;76.10;91047.59;2074551;69;20242;-77
2022/11/22 07:18:59;;;;;;;16.83;9.30;;;;;;;3.72;75.73;91051.94;2074650;69;20144;-76
2022/11/22 07:21:25;;;;;;;16.55;9.82;;;;;;;3.56;76.08;91057.28;2074614;69;20147;-77
2022/11/22 07:23:52;;;;;;;13.93;8.27;;;;;;;3.53;76.28;91057.78;2074773;69;20159;-78
2022/11/22 07:26:21;;;;;;;15.10;8.88;;;;;;;3.46;76.32;91059.47;2071204;69;20144;-78
2022/11/22 07:28:47;;;;;;;16.35;8.98;;;;;;;3.45;76.57;91060.78;2074565;69;20144;-78
2022/11/22 07:31:15;;;;;;;16.45;9.70;;;;;;;3.25;77.35;91063.09;2074591;69;20144;-78
2022/11/22 07:33:45;;;;;;;12.77;8.65;;;;;;;3.47;76.35;91069.25;2071253;69;20166;-78
2022/11/22 07:36:17;;;;;;;16.67;9.90;;;;;;;3.55;75.99;91078.09;2074657;69;20627;-78
2022/11/22 07:38:43;;;;;;;19.80;10.87;;;;;;;3.43;76.17;91079.41;2074676;69;20175;-78
2022/11/22 07:41:09;;;;;;;15.35;10.30;;;;;;;3.41;76.10;91087.63;2074553;69;20174;-78
2022/11/22 07:43:35;;;;;;;17.45;10.98;;;;;;;3.33;76.43;91093.44;2074729;69;20155;-78
2022/11/22 07:46:05;;;;;;;19.05;11.13;;;;;;;3.39;76.47;91091.03;2074594;69;20172;-76
2022/11/22 07:48:31;;;;;;;17.52;10.88;;;;;;;3.48;76.09;91095.75;2074520;69;20155;-78
2022/11/22 07:51:03;;;;;;;18.42;11.10;;;;;;;3.51;75.95;91094.53;2074672;69;20480;-78
2022/11/22 07:53:28;;;;;;;18.40;11.25;;;;;;;3.34;76.51;91094.16;2071383;69;20159;-78
2022/11/22 07:55:54;;;;;;;16.50;10.63;;;;;;;3.43;76.32;91096.09;2074621;69;20144;-77
2022/11/22 07:58:19;;;;;;;17.80;11.15;;;;;;;3.47;76.09;91102.63;2071234;69;20247;-77
2022/11/22 08:00:57;;;;;;;16.88;11.18;;;;;;;3.44;75.88;91101.06;2074677;69;20145;-78
2022/11/22 08:03:30;;;;;;;18.75;10.73;;;;;;;3.44;75.99;91106.63;2074509;69;20624;-78
2022/11/22 08:06:01;;;;;;;18.85;10.85;;;;;;;3.44;76.14;91106.63;2074758;69;20569;-78
2022/11/22 08:08:27;;;;;;;17.17;10.88;;;;;;;3.48;75.90;91111.69;2074539;69;20183;-79
2022/11/22 08:10:53;;;;;;;17.45;11.45;;;;;;;3.48;75.51;91112.44;2071215;69;20132;-78
2022/11/22 08:13:19;;;;;;;18.23;11.43;;;;;;;3.43;76.09;91118.34;2071200;69;20197;-78
2022/11/22 08:15:48;;;;;;;17.60;11.75;;;;;;;3.42;75.82;91114.13;2074517;69;20151;-78
2022/11/22 08:18:14;;;;;;;20.08;12.13;;;;;;;3.26;76.51;91130.56;2074578;69;20564;-78
2022/11/22 08:20:40;;;;;;;21.17;12.07;;;;;;;3.39;76.39;91132.00;2074526;69;20140;-76
2022/11/22 08:23:05;;;;;;;19.67;12.00;;;;;;;3.35;76.64;91140.13;2074631;69;20671;-76
2022/11/22 08:25:32;;;;;;;17.50;10.80;;;;;;;3.18;76.79;91139.13;2074589;69;20179;-76
2022/11/22 08:27:58;;;;;;;18.30;12.60;;;;;;;3.20;77.05;91144.06;2071203;69;20608;-76
2022/11/22 08:30:23;;;;;;;24.00;16.30;;;;;;;3.18;77.19;91141.91;2074513;69;20148;-76
2022/11/22 08:32:50;;;;;;;26.00;16.67;;;;;;;3.37;76.56;91145.81;2074343;69;20148;-76
2022/11/22 08:35:16;;;;;;;16.05;11.63;;;;;;;3.37;76.52;91134.69;2074395;69;20235;-76
2022/11/22 08:37:41;;;;;;;18.88;12.10;;;;;;;3.38;76.60;91136.84;2071072;69;20158;-76
2022/11/22 08:40:08;;;;;;;21.27;12.32;;;;;;;3.41;76.45;91137.72;2074569;69;20553;-76
2022/11/22 08:42:33;;;;;;;23.50;14.90;;;;;;;3.16;77.24;91136.22;2071761;69;20142;-76
2022/11/22 08:44:59;;;;;;;29.00;17.83;;;;;;;3.20;77.33;91136.44;2074954;69;20167;-76
2022/11/22 08:47:25;;;;;;;26.15;15.57;;;;;;;3.26;77.41;91153.53;2075070;69;20168;-76
2022/11/22 08:49:51;;;;;;;23.15;14.52;;;;;;;3.46;76.40;91150.53;2074953;69;20155;-77
2022/11/22 08:52:16;;;;;;;23.42;13.45;;;;;;;3.30;76.55;91155.84;2074968;69;20136;-76
2022/11/22 08:54:42;;;;;;;25.70;15.68;;;;;;;3.19;77.28;91159.31;2075027;69;20144;-76
2022/11/22 08:57:07;;;;;;;22.30;14.55;;;;;;;3.44;76.43;91159.50;2075052;69;20484;-76
2022/11/22 08:59:34;;;;;;;23.38;14.07;;;;;;;3.45;76.24;91155.38;2074974;69;20530;-77
2022/11/22 09:02:02;;;;;;;21.90;12.98;;;;;;;3.42;76.51;91156.56;2074861;69;20172;-77
2022/11/22 09:04:27;;;;;;;19.38;12.07;;;;;;;3.40;76.67;91169.66;2074876;69;20603;-76
2022/11/22 09:06:54;;;;;;;19.13;11.75;;;;;;;3.46;76.41;91164.44;2075050;69;20192;-77
2022/11/22 09:09:20;;;;;;;19.25;12.27;;;;;;;3.49;76.15;91157.69;2074221;69;20156;-76
2022/11/22 09:11:45;;;;;;;22.75;13.50;;;;;;;3.50;76.21;91164.69;2080096;69;20163;-76
2022/11/22 09:14:11;;;;;;;20.02;12.50;;;;;;;3.35;76.50;91171.44;2080029;69;20159;-75
2022/11/22 09:16:37;;;;;;;18.88;11.30;;;;;;;3.33;77.03;91170.59;2076142;69;20147;-76
2022/11/22 09:19:02;;;;;;;22.38;12.32;;;;;;;3.33;76.82;91170.59;2075612;69;20152;-76
2022/11/22 09:21:28;;;;;;;26.00;13.13;;;;;;;3.42;76.31;91178.81;2075192;69;20147;-77
2022/11/22 09:23:53;;;;;;;30.50;16.05;;;;;;;3.20;76.92;91174.66;2075088;69;20152;-77
2022/11/22 09:26:21;;;;;;;26.05;14.70;;;;;;;3.39;76.36;91176.50;2074886;69;20148;-77
2022/11/22 09:28:47;;;;;;;40.45;20.33;;;;;;;3.23;77.05;91170.69;2074935;69;20224;-76
2022/11/22 09:31:15;;;;;;;31.15;16.65;;;;;;;3.31;76.89;91177.47;2074795;69;20155;-77
2022/11/22 09:33:45;;;;;;;44.42;22.35;;;;;;;3.45;76.13;91180.41;2071487;69;20163;-77
2022/11/22 09:36:12;;;;;;;38.03;19.63;;;;;;;3.31;76.78;91183.03;2071620;69;20183;-76
2022/11/22 09:38:38;;;;;;;31.75;17.42;;;;;;;3.35;76.79;91182.56;2074910;69;20136;-78
2022/11/22 09:41:16;;;;;;;26.10;14.57;;;;;;;3.41;76.37;91190.56;2074853;69;20155;-78
2022/11/22 09:44:08;;;;;;;26.48;14.80;;;;;;;3.29;77.07;91179.41;2071820;69;20140;-76
2022/11/22 09:46:33;;;;;;;23.52;14.30;;;;;;;3.27;77.13;91184.84;2063840;69;20144;-76
2022/11/22 09:49:09;;;;;;;24.85;14.55;;;;;;;3.41;76.57;91180.16;2073225;69;20156;-76
2022/11/22 09:52:03;;;;;;;31.52;17.33;;;;;;;3.38;76.51;91194.53;2072955;69;20158;-76
2022/11/22 09:54:51;;;;;;;34.88;19.17;;;;;;;3.30;77.06;91194.78;2067749;69;20152;-76
2022/11/22 09:57:46;;;;;;;37.38;20.17;;;;;;;3.45;76.42;91191.53;2073170;69;20160;-76
2022/11/22 10:00:26;;;;;;;34.20;20.00;;;;;;;3.41;76.54;91190.56;2072395;69;20164;-77
2022/11/22 10:03:11;;;;;;;33.70;19.77;;;;;;;3.38;76.62;91186.19;2073018;69;20155;-76
2022/11/22 10:05:52;;;;;;;32.65;17.35;;;;;;;3.47;76.61;91188.16;2072011;69;20640;-76
2022/11/22 10:08:45;;;;;;;30.42;17.17;;;;;;;3.40;76.69;91175.22;2072527;69;20597;-76
2022/11/22 10:11:39;;;;;;;25.83;16.30;;;;;;;3.41;76.79;91162.75;2072962;69;20182;-77
2022/11/22 10:14:16;;;;;;;31.35;17.42;;;;;;;3.47;76.59;91161.06;2072805;69;20504;-76
2022/11/22 10:16:54;;;;;;;29.92;16.73;;;;;;;3.54;76.22;91168.44;2074244;69;20178;-75
2022/11/22 10:19:29;;;;;;;29.27;17.23;;;;;;;3.44;76.41;91167.13;2072709;69;20213;-76
2022/11/22 10:21:54;;;;;;;31.95;18.10;;;;;;;3.54;76.30;91171.25;2071966;69;20164;-76
2022/11/22 10:24:20;;;;;;;33.30;18.58;;;;;;;3.61;76.00;91174.38;2069730;69;20186;-76
2022/11/22 10:26:48;;;;;;;30.70;18.00;;;;;;;3.67;76.06;91172.72;2070901;69;20176;-75
2022/11/22 10:29:41;;;;;;;35.30;19.73;;;;;;;3.55;76.33;91171.97;2071475;69;20172;-77
2022/11/22 10:32:25;;;;;;;42.10;22.88;;;;;;;3.47;76.23;91166.63;2071337;69;20151;-77
2022/11/22 10:35:12;;;;;;;50.83;28.55;;;;;;;3.40;76.72;91180.78;2071238;69;20171;-77
2022/11/22 10:37:46;;;;;;;41.50;24.40;;;;;;;3.53;76.54;91169.06;2071366;69;20242;-76
2022/11/22 10:40:28;;;;;;;50.90;27.23;;;;;;;3.63;76.06;91177.31;2071344;69;20179;-76
2022/11/22 10:43:10;;;;;;;;;;;;;;;3.60;76.24;91179.22;2071417;69;20228;-75
2022/11/22 10:45:46;;;;;;;49.83;26.20;;;;;;;3.65;75.90;91169.06;2071352;69;20040;-75
2022/11/22 10:48:27;;;;;;;50.63;28.70;;;;;;;3.65;76.03;91171.84;2070966;69;20141;-75
2022/11/22 10:51:22;;;;;;;52.67;27.58;;;;;;;3.33;76.71;91162.97;2071502;69;20140;-75
2022/11/22 10:53:58;;;;;;;45.03;25.73;;;;;;;3.54;76.63;91167.72;2071512;69;20144;-75
2022/11/22 10:56:39;;;;;;;40.70;24.60;;;;;;;3.55;76.67;91167.13;2070947;69;20167;-76
2022/11/22 10:59:17;;;;;;;50.35;29.38;;;;;;;3.78;75.92;91168.47;2071658;69;20235;-75
2022/11/22 11:01:58;;;;;;;53.42;31.17;;;;;;;3.69;76.30;91164.47;2071633;69;20152;-76
2022/11/22 11:04:29;;;;;;;46.58;27.17;;;;;;;3.83;76.07;91165.31;2071447;69;20182;-76
2022/11/22 11:06:59;;;;;;;42.42;25.42;;;;;;;3.95;75.46;91168.13;2071502;69;20649;-75
2022/11/22 11:09:33;;;;;;;40.35;24.35;;;;;;;4.02;75.56;91169.19;2071356;69;20151;-74
2022/11/22 11:12:05;;;;;;;32.88;20.33;;;;;;;3.70;75.92;91171.50;2071366;69;20160;-73
2022/11/22 11:14:41;;;;;;;35.13;21.05;;;;;;;3.64;77.07;91173.19;2071296;69;20250;-75
2022/11/22 11:17:19;;;;;;;36.60;21.73;;;;;;;3.86;76.49;91168.25;2071151;69;20299;-75
2022/11/22 11:19:48;;;;;;;32.35;19.52;;;;;;;3.54;76.86;91168.44;2071780;69;20144;-74
2022/11/22 11:22:22;;;;;;;188.75;91.55;;;;;;;3.72;76.68;91174.41;2071046;69;20285;-77
2022/11/22 11:24:48;;;;;;;156.73;79.13;;;;;;;3.79;76.86;91169.94;2070557;69;20148;-76
2022/11/22 11:27:15;;;;;;;50.72;30.15;;;;;;;3.33;77.52;91174.09;2071076;69;20153;-76
2022/11/22 11:29:41;;;;;;;38.35;22.65;;;;;;;3.53;77.78;91169.78;2071332;69;20658;-76
2022/11/22 11:32:21;;;;;;;52.90;27.73;;;;;;;3.64;77.72;91164.84;2071066;69;20136;-75
2022/11/22 11:35:06;;;;;;;67.03;36.53;;;;;;;3.87;76.80;91156.50;2070771;69;20147;-75
2022/11/22 11:37:35;;;;;;;47.63;24.40;;;;;;;3.92;76.96;91144.28;2071354;69;20144;-76
2022/11/22 11:40:02;;;;;;;41.47;22.63;;;;;;;4.03;75.95;91132.41;2071503;69;20171;-76
2022/11/22 11:42:30;;;;;;;35.55;22.45;;;;;;;4.15;75.79;91137.25;2071380;69;20159;-76
2022/11/22 11:45:23;;;;;;;33.38;20.63;;;;;;;4.29;75.43;91135.28;2071320;69;20219;-76
2022/11/22 11:47:49;;;;;;;31.33;19.38;;;;;;;4.31;75.19;91138.91;2067789;69;20596;-75
2022/11/22 11:50:26;;;;;;;30.02;18.42;;;;;;;4.28;75.94;91139.41;2071387;69;20152;-76